sensor_id;sensor_type;location;lat;lon;timestamp;P1;durP1;ratioP1;P2;durP2;ratioP2
43014;SDS011;28637;50.554;7.032;2022-10-16T00:04:37;1.20;;;1.10;;
43014;SDS011;28637;50.554;7.032;2022-10-16T00:09:37;1.00;;;1.00;;
43014;SDS011;28637;50.554;7.032;2022-10-16T00:14:38;3.70;;;0.80;;
43014;SDS011;28637;50.554;7.032;2022-10-16T00:19:41;1.52;;;0.95;;
43014;SDS011;28637;50.554;7.032;2022-10-16T00:24:42;2.30;;;1.00;;
43014;SDS011;28637;50.554;7.032;2022-10-16T00:29:43;1.33;;;1.23;;
43014;SDS011;28637;50.554;7.032;2022-10-16T00:34:43;7.47;;;1.30;;
43014;SDS011;28637;50.554;7.032;2022-10-16T00:39:44;2.43;;;1.30;;
43014;SDS011;28637;50.554;7.032;2022-10-16T00:44:49;1.67;;;1.00;;
43014;SDS011;28637;50.554;7.032;2022-10-16T00:49:58;1.20;;;1.10;;
43014;SDS011;28637;50.554;7.032;2022-10-16T00:55:06;1.60;;;1.50;;
43014;SDS011;28637;50.554;7.032;2022-10-16T01:00:09;3.70;;;0.95;;
43014;SDS011;28637;50.554;7.032;2022-10-16T01:05:11;1.20;;;0.98;;
43014;SDS011;28637;50.554;7.032;2022-10-16T01:20:42;2.10;;;1.10;;
43014;SDS011;28637;50.554;7.032;2022-10-16T01:31:30;2.45;;;1.00;;
43014;SDS011;28637;50.554;7.032;2022-10-16T01:36:35;1.27;;;1.02;;
43014;SDS011;28637;50.554;7.032;2022-10-16T01:41:47;3.30;;;1.20;;
43014;SDS011;28637;50.554;7.032;2022-10-16T01:46:52;1.65;;;1.20;;
43014;SDS011;28637;50.554;7.032;2022-10-16T01:51:55;2.72;;;1.00;;
43014;SDS011;28637;50.554;7.032;2022-10-16T01:56:58;1.55;;;0.90;;
43014;SDS011;28637;50.554;7.032;2022-10-16T02:02:01;3.40;;;1.10;;
43014;SDS011;28637;50.554;7.032;2022-10-16T02:07:07;4.18;;;1.10;;
43014;SDS011;28637;50.554;7.032;2022-10-16T02:12:31;1.00;;;0.80;;
43014;SDS011;28637;50.554;7.032;2022-10-16T02:17:33;2.45;;;0.90;;
43014;SDS011;28637;50.554;7.032;2022-10-16T02:22:34;1.10;;;1.00;;
43014;SDS011;28637;50.554;7.032;2022-10-16T02:32:55;1.05;;;0.95;;
43014;SDS011;28637;50.554;7.032;2022-10-16T02:37:57;0.80;;;0.80;;
43014;SDS011;28637;50.554;7.032;2022-10-16T02:42:58;0.73;;;0.73;;
43014;SDS011;28637;50.554;7.032;2022-10-16T02:47:59;1.57;;;1.10;;
43014;SDS011;28637;50.554;7.032;2022-10-16T02:53:00;1.33;;;1.00;;
43014;SDS011;28637;50.554;7.032;2022-10-16T02:58:01;2.87;;;1.00;;
43014;SDS011;28637;50.554;7.032;2022-10-16T03:03:02;2.40;;;0.80;;
43014;SDS011;28637;50.554;7.032;2022-10-16T03:08:03;5.30;;;1.00;;
43014;SDS011;28637;50.554;7.032;2022-10-16T03:13:04;2.60;;;0.90;;
43014;SDS011;28637;50.554;7.032;2022-10-16T03:18:04;1.73;;;1.00;;
43014;SDS011;28637;50.554;7.032;2022-10-16T03:23:05;2.60;;;0.90;;
43014;SDS011;28637;50.554;7.032;2022-10-16T03:28:08;1.40;;;0.70;;
43014;SDS011;28637;50.554;7.032;2022-10-16T03:33:09;1.17;;;0.97;;
43014;SDS011;28637;50.554;7.032;2022-10-16T03:38:09;1.60;;;1.00;;
43014;SDS011;28637;50.554;7.032;2022-10-16T03:43:10;1.10;;;0.90;;
43014;SDS011;28637;50.554;7.032;2022-10-16T03:48:11;1.23;;;1.13;;
43014;SDS011;28637;50.554;7.032;2022-10-16T03:53:11;5.00;;;1.10;;
43014;SDS011;28637;50.554;7.032;2022-10-16T03:58:12;4.17;;;1.07;;
43014;SDS011;28637;50.554;7.032;2022-10-16T04:03:13;1.30;;;1.20;;
43014;SDS011;28637;50.554;7.032;2022-10-16T04:08:14;1.88;;;1.20;;
43014;SDS011;28637;50.554;7.032;2022-10-16T04:13:14;1.10;;;1.00;;
43014;SDS011;28637;50.554;7.032;2022-10-16T04:18:15;1.03;;;1.03;;
43014;SDS011;28637;50.554;7.032;2022-10-16T04:23:16;2.83;;;1.10;;
43014;SDS011;28637;50.554;7.032;2022-10-16T04:28:16;3.30;;;1.13;;
43014;SDS011;28637;50.554;7.032;2022-10-16T04:33:17;1.57;;;1.00;;
43014;SDS011;28637;50.554;7.032;2022-10-16T04:38:18;1.23;;;1.03;;
43014;SDS011;28637;50.554;7.032;2022-10-16T04:43:18;0.83;;;0.83;;
43014;SDS011;28637;50.554;7.032;2022-10-16T04:48:19;1.43;;;0.90;;
43014;SDS011;28637;50.554;7.032;2022-10-16T04:53:20;1.50;;;0.90;;
43014;SDS011;28637;50.554;7.032;2022-10-16T04:58:21;1.10;;;1.00;;
43014;SDS011;28637;50.554;7.032;2022-10-16T05:03:22;1.93;;;1.00;;
43014;SDS011;28637;50.554;7.032;2022-10-16T05:08:22;1.83;;;1.00;;
43014;SDS011;28637;50.554;7.032;2022-10-16T05:13:24;1.57;;;0.77;;
43014;SDS011;28637;50.554;7.032;2022-10-16T05:18:24;2.23;;;1.00;;
43014;SDS011;28637;50.554;7.032;2022-10-16T05:23:25;1.67;;;1.10;;
43014;SDS011;28637;50.554;7.032;2022-10-16T05:28:26;3.33;;;1.00;;
43014;SDS011;28637;50.554;7.032;2022-10-16T05:33:28;1.05;;;0.90;;
43014;SDS011;28637;50.554;7.032;2022-10-16T05:38:29;1.73;;;0.93;;
43014;SDS011;28637;50.554;7.032;2022-10-16T05:43:29;0.90;;;0.90;;
43014;SDS011;28637;50.554;7.032;2022-10-16T05:48:31;1.70;;;0.93;;
43014;SDS011;28637;50.554;7.032;2022-10-16T05:53:33;3.33;;;0.88;;
43014;SDS011;28637;50.554;7.032;2022-10-16T05:58:36;1.27;;;0.90;;
43014;SDS011;28637;50.554;7.032;2022-10-16T06:03:37;0.82;;;0.80;;
43014;SDS011;28637;50.554;7.032;2022-10-16T06:08:38;3.53;;;1.00;;
43014;SDS011;28637;50.554;7.032;2022-10-16T06:13:40;2.00;;;1.02;;
43014;SDS011;28637;50.554;7.032;2022-10-16T06:18:42;1.05;;;0.90;;
43014;SDS011;28637;50.554;7.032;2022-10-16T06:23:43;1.40;;;1.00;;
43014;SDS011;28637;50.554;7.032;2022-10-16T06:28:46;0.88;;;0.80;;
43014;SDS011;28637;50.554;7.032;2022-10-16T06:33:50;1.38;;;0.80;;
43014;SDS011;28637;50.554;7.032;2022-10-16T06:38:51;1.63;;;0.80;;
43014;SDS011;28637;50.554;7.032;2022-10-16T06:43:52;1.83;;;0.80;;
43014;SDS011;28637;50.554;7.032;2022-10-16T06:48:53;0.70;;;0.70;;
43014;SDS011;28637;50.554;7.032;2022-10-16T06:53:54;3.73;;;0.90;;
43014;SDS011;28637;50.554;7.032;2022-10-16T06:58:56;1.98;;;0.65;;
43014;SDS011;28637;50.554;7.032;2022-10-16T07:03:57;1.70;;;0.90;;
43014;SDS011;28637;50.554;7.032;2022-10-16T07:09:00;2.07;;;0.90;;
43014;SDS011;28637;50.554;7.032;2022-10-16T07:14:03;3.60;;;0.90;;
43014;SDS011;28637;50.554;7.032;2022-10-16T07:19:04;3.25;;;0.82;;
43014;SDS011;28637;50.554;7.032;2022-10-16T07:24:06;0.80;;;0.80;;
43014;SDS011;28637;50.554;7.032;2022-10-16T07:29:14;1.70;;;0.82;;
43014;SDS011;28637;50.554;7.032;2022-10-16T07:34:17;1.05;;;0.95;;
43014;SDS011;28637;50.554;7.032;2022-10-16T07:39:19;3.38;;;0.85;;
43014;SDS011;28637;50.554;7.032;2022-10-16T07:44:20;1.00;;;0.90;;
43014;SDS011;28637;50.554;7.032;2022-10-16T07:49:20;2.30;;;1.00;;
43014;SDS011;28637;50.554;7.032;2022-10-16T07:54:21;1.40;;;1.10;;
43014;SDS011;28637;50.554;7.032;2022-10-16T07:59:22;2.53;;;0.90;;
43014;SDS011;28637;50.554;7.032;2022-10-16T08:04:22;0.93;;;0.83;;
43014;SDS011;28637;50.554;7.032;2022-10-16T08:09:23;2.37;;;0.90;;
43014;SDS011;28637;50.554;7.032;2022-10-16T08:14:24;1.30;;;0.83;;
43014;SDS011;28637;50.554;7.032;2022-10-16T08:19:24;0.77;;;0.67;;
43014;SDS011;28637;50.554;7.032;2022-10-16T08:24:25;1.60;;;0.80;;
43014;SDS011;28637;50.554;7.032;2022-10-16T08:29:26;1.03;;;0.87;;
43014;SDS011;28637;50.554;7.032;2022-10-16T08:34:27;1.20;;;1.00;;
43014;SDS011;28637;50.554;7.032;2022-10-16T08:39:28;1.00;;;0.90;;
43014;SDS011;28637;50.554;7.032;2022-10-16T08:49:39;2.15;;;0.88;;
43014;SDS011;28637;50.554;7.032;2022-10-16T08:54:47;2.42;;;1.00;;
43014;SDS011;28637;50.554;7.032;2022-10-16T08:59:51;1.00;;;0.80;;
43014;SDS011;28637;50.554;7.032;2022-10-16T09:16:12;0.77;;;0.77;;
43014;SDS011;28637;50.554;7.032;2022-10-16T09:26:23;0.70;;;0.60;;
43014;SDS011;28637;50.554;7.032;2022-10-16T09:31:23;0.67;;;0.50;;
43014;SDS011;28637;50.554;7.032;2022-10-16T09:36:25;0.73;;;0.60;;
43014;SDS011;28637;50.554;7.032;2022-10-16T09:41:28;1.40;;;0.50;;
43014;SDS011;28637;50.554;7.032;2022-10-16T09:46:29;0.83;;;0.60;;
43014;SDS011;28637;50.554;7.032;2022-10-16T09:51:33;0.45;;;0.43;;
43014;SDS011;28637;50.554;7.032;2022-10-16T09:56:36;0.60;;;0.40;;
43014;SDS011;28637;50.554;7.032;2022-10-16T10:01:49;0.50;;;0.50;;
43014;SDS011;28637;50.554;7.032;2022-10-16T10:06:53;0.30;;;0.30;;
43014;SDS011;28637;50.554;7.032;2022-10-16T10:12:00;1.10;;;0.40;;
43014;SDS011;28637;50.554;7.032;2022-10-16T10:17:08;2.40;;;0.45;;
43014;SDS011;28637;50.554;7.032;2022-10-16T10:32:51;1.38;;;0.40;;
43014;SDS011;28637;50.554;7.032;2022-10-16T10:38:24;1.42;;;0.55;;
43014;SDS011;28637;50.554;7.032;2022-10-16T10:48:58;1.85;;;0.50;;
43014;SDS011;28637;50.554;7.032;2022-10-16T10:59:25;1.38;;;0.40;;
43014;SDS011;28637;50.554;7.032;2022-10-16T11:09:43;1.40;;;0.60;;
43014;SDS011;28637;50.554;7.032;2022-10-16T11:14:56;1.55;;;0.50;;
43014;SDS011;28637;50.554;7.032;2022-10-16T11:20:05;0.60;;;0.40;;
43014;SDS011;28637;50.554;7.032;2022-10-16T11:30:29;0.47;;;0.47;;
43014;SDS011;28637;50.554;7.032;2022-10-16T11:35:42;1.17;;;0.50;;
43014;SDS011;28637;50.554;7.032;2022-10-16T11:40:52;0.65;;;0.40;;
43014;SDS011;28637;50.554;7.032;2022-10-16T11:45:58;0.35;;;0.30;;
43014;SDS011;28637;50.554;7.032;2022-10-16T11:51:11;0.50;;;0.30;;
43014;SDS011;28637;50.554;7.032;2022-10-16T11:56:20;0.80;;;0.40;;
43014;SDS011;28637;50.554;7.032;2022-10-16T12:06:35;0.80;;;0.30;;
43014;SDS011;28637;50.554;7.032;2022-10-16T12:11:42;2.80;;;0.40;;
43014;SDS011;28637;50.554;7.032;2022-10-16T12:16:52;0.40;;;0.30;;
43014;SDS011;28637;50.554;7.032;2022-10-16T12:21:56;0.40;;;0.40;;
43014;SDS011;28637;50.554;7.032;2022-10-16T12:27:01;0.88;;;0.50;;
43014;SDS011;28637;50.554;7.032;2022-10-16T12:32:03;0.80;;;0.40;;
43014;SDS011;28637;50.554;7.032;2022-10-16T12:37:24;2.45;;;0.30;;
43014;SDS011;28637;50.554;7.032;2022-10-16T12:52:36;0.40;;;0.30;;
43014;SDS011;28637;50.554;7.032;2022-10-16T13:24:20;0.40;;;0.20;;
43014;SDS011;28637;50.554;7.032;2022-10-16T13:29:29;0.52;;;0.45;;
43014;SDS011;28637;50.554;7.032;2022-10-16T13:34:31;2.47;;;0.32;;
43014;SDS011;28637;50.554;7.032;2022-10-16T13:39:32;1.27;;;0.20;;
43014;SDS011;28637;50.554;7.032;2022-10-16T13:44:35;1.67;;;0.57;;
43014;SDS011;28637;50.554;7.032;2022-10-16T13:49:41;0.20;;;0.20;;
43014;SDS011;28637;50.554;7.032;2022-10-16T13:54:42;0.90;;;0.35;;
43014;SDS011;28637;50.554;7.032;2022-10-16T13:59:43;1.97;;;0.20;;
43014;SDS011;28637;50.554;7.032;2022-10-16T14:04:44;0.35;;;0.20;;
43014;SDS011;28637;50.554;7.032;2022-10-16T14:09:47;0.95;;;0.30;;
43014;SDS011;28637;50.554;7.032;2022-10-16T14:14:50;0.35;;;0.35;;
43014;SDS011;28637;50.554;7.032;2022-10-16T14:19:54;0.40;;;0.40;;
43014;SDS011;28637;50.554;7.032;2022-10-16T14:25:00;0.77;;;0.32;;
43014;SDS011;28637;50.554;7.032;2022-10-16T14:35:25;0.73;;;0.20;;
43014;SDS011;28637;50.554;7.032;2022-10-16T14:40:35;0.40;;;0.38;;
43014;SDS011;28637;50.554;7.032;2022-10-16T14:45:37;1.83;;;0.28;;
43014;SDS011;28637;50.554;7.032;2022-10-16T14:50:41;0.77;;;0.47;;
43014;SDS011;28637;50.554;7.032;2022-10-16T14:55:42;0.50;;;0.50;;
43014;SDS011;28637;50.554;7.032;2022-10-16T15:00:43;0.33;;;0.30;;
43014;SDS011;28637;50.554;7.032;2022-10-16T15:05:43;0.97;;;0.50;;
43014;SDS011;28637;50.554;7.032;2022-10-16T15:10:44;1.13;;;0.50;;
43014;SDS011;28637;50.554;7.032;2022-10-16T15:15:45;0.80;;;0.40;;
43014;SDS011;28637;50.554;7.032;2022-10-16T15:20:50;1.45;;;0.50;;
43014;SDS011;28637;50.554;7.032;2022-10-16T15:25:54;0.88;;;0.40;;
43014;SDS011;28637;50.554;7.032;2022-10-16T15:30:56;1.30;;;0.43;;
43014;SDS011;28637;50.554;7.032;2022-10-16T15:35:57;4.60;;;0.50;;
43014;SDS011;28637;50.554;7.032;2022-10-16T15:40:57;2.33;;;0.50;;
43014;SDS011;28637;50.554;7.032;2022-10-16T15:45:59;0.83;;;0.50;;
43014;SDS011;28637;50.554;7.032;2022-10-16T15:51:05;0.65;;;0.55;;
43014;SDS011;28637;50.554;7.032;2022-10-16T15:56:08;1.02;;;0.75;;
43014;SDS011;28637;50.554;7.032;2022-10-16T16:01:11;4.40;;;0.68;;
43014;SDS011;28637;50.554;7.032;2022-10-16T16:06:12;3.17;;;1.33;;
43014;SDS011;28637;50.554;7.032;2022-10-16T16:11:14;5.28;;;1.70;;
43014;SDS011;28637;50.554;7.032;2022-10-16T16:16:16;4.30;;;2.30;;
43014;SDS011;28637;50.554;7.032;2022-10-16T16:21:17;1.75;;;1.45;;
43014;SDS011;28637;50.554;7.032;2022-10-16T16:26:25;2.37;;;1.37;;
43014;SDS011;28637;50.554;7.032;2022-10-16T16:31:28;2.60;;;1.17;;
43014;SDS011;28637;50.554;7.032;2022-10-16T16:36:30;2.20;;;0.90;;
43014;SDS011;28637;50.554;7.032;2022-10-16T16:41:31;1.83;;;0.90;;
43014;SDS011;28637;50.554;7.032;2022-10-16T16:46:33;1.98;;;0.80;;
43014;SDS011;28637;50.554;7.032;2022-10-16T16:51:34;1.13;;;0.70;;
43014;SDS011;28637;50.554;7.032;2022-10-16T16:56:35;2.13;;;0.90;;
43014;SDS011;28637;50.554;7.032;2022-10-16T17:01:36;1.67;;;1.20;;
43014;SDS011;28637;50.554;7.032;2022-10-16T17:06:37;1.60;;;0.90;;
43014;SDS011;28637;50.554;7.032;2022-10-16T17:11:38;5.25;;;1.00;;
43014;SDS011;28637;50.554;7.032;2022-10-16T17:16:41;2.58;;;1.30;;
43014;SDS011;28637;50.554;7.032;2022-10-16T17:21:44;2.63;;;1.60;;
43014;SDS011;28637;50.554;7.032;2022-10-16T17:26:45;3.35;;;1.33;;
43014;SDS011;28637;50.554;7.032;2022-10-16T17:31:47;2.60;;;1.50;;
43014;SDS011;28637;50.554;7.032;2022-10-16T17:36:49;1.40;;;1.30;;
43014;SDS011;28637;50.554;7.032;2022-10-16T17:41:49;3.37;;;1.40;;
43014;SDS011;28637;50.554;7.032;2022-10-16T17:46:51;2.23;;;1.13;;
43014;SDS011;28637;50.554;7.032;2022-10-16T17:51:52;1.75;;;1.20;;
43014;SDS011;28637;50.554;7.032;2022-10-16T17:56:53;2.50;;;1.38;;
43014;SDS011;28637;50.554;7.032;2022-10-16T18:01:54;1.30;;;1.20;;
43014;SDS011;28637;50.554;7.032;2022-10-16T18:06:55;2.28;;;1.10;;
43014;SDS011;28637;50.554;7.032;2022-10-16T18:11:56;5.87;;;1.40;;
43014;SDS011;28637;50.554;7.032;2022-10-16T18:16:59;3.53;;;1.17;;
43014;SDS011;28637;50.554;7.032;2022-10-16T18:22:00;1.63;;;1.43;;
43014;SDS011;28637;50.554;7.032;2022-10-16T18:27:01;7.13;;;2.50;;
43014;SDS011;28637;50.554;7.032;2022-10-16T18:32:02;2.17;;;1.83;;
43014;SDS011;28637;50.554;7.032;2022-10-16T18:37:03;6.43;;;2.10;;
43014;SDS011;28637;50.554;7.032;2022-10-16T18:42:04;2.88;;;2.10;;
43014;SDS011;28637;50.554;7.032;2022-10-16T18:47:05;4.10;;;2.10;;
43014;SDS011;28637;50.554;7.032;2022-10-16T18:52:06;3.13;;;2.07;;
43014;SDS011;28637;50.554;7.032;2022-10-16T18:57:07;1.87;;;1.77;;
43014;SDS011;28637;50.554;7.032;2022-10-16T19:02:07;2.10;;;1.80;;
43014;SDS011;28637;50.554;7.032;2022-10-16T19:07:09;1.80;;;1.70;;
43014;SDS011;28637;50.554;7.032;2022-10-16T19:12:10;3.28;;;2.08;;
43014;SDS011;28637;50.554;7.032;2022-10-16T19:17:11;3.67;;;2.00;;
43014;SDS011;28637;50.554;7.032;2022-10-16T19:22:11;2.13;;;1.93;;
43014;SDS011;28637;50.554;7.032;2022-10-16T19:27:26;4.03;;;2.03;;
43014;SDS011;28637;50.554;7.032;2022-10-16T19:32:27;2.70;;;1.80;;
43014;SDS011;28637;50.554;7.032;2022-10-16T19:37:28;4.00;;;2.00;;
43014;SDS011;28637;50.554;7.032;2022-10-16T19:42:28;4.97;;;2.17;;
43014;SDS011;28637;50.554;7.032;2022-10-16T19:47:30;2.30;;;2.10;;
43014;SDS011;28637;50.554;7.032;2022-10-16T19:52:31;2.83;;;1.90;;
43014;SDS011;28637;50.554;7.032;2022-10-16T19:57:33;2.63;;;2.30;;
43014;SDS011;28637;50.554;7.032;2022-10-16T20:02:37;4.90;;;2.50;;
43014;SDS011;28637;50.554;7.032;2022-10-16T20:07:37;5.80;;;2.80;;
43014;SDS011;28637;50.554;7.032;2022-10-16T20:12:38;3.17;;;2.60;;
43014;SDS011;28637;50.554;7.032;2022-10-16T20:17:39;4.67;;;3.00;;
43014;SDS011;28637;50.554;7.032;2022-10-16T20:22:40;4.40;;;3.00;;
43014;SDS011;28637;50.554;7.032;2022-10-16T20:27:41;5.40;;;3.00;;
43014;SDS011;28637;50.554;7.032;2022-10-16T20:32:42;5.30;;;3.20;;
43014;SDS011;28637;50.554;7.032;2022-10-16T20:37:43;3.40;;;2.88;;
43014;SDS011;28637;50.554;7.032;2022-10-16T20:42:47;4.70;;;2.80;;
43014;SDS011;28637;50.554;7.032;2022-10-16T20:47:48;6.67;;;3.00;;
43014;SDS011;28637;50.554;7.032;2022-10-16T20:52:49;3.63;;;3.00;;
43014;SDS011;28637;50.554;7.032;2022-10-16T20:57:50;6.43;;;3.20;;
43014;SDS011;28637;50.554;7.032;2022-10-16T21:02:51;4.73;;;3.23;;
43014;SDS011;28637;50.554;7.032;2022-10-16T21:07:52;5.68;;;3.67;;
43014;SDS011;28637;50.554;7.032;2022-10-16T21:12:53;4.27;;;3.00;;
43014;SDS011;28637;50.554;7.032;2022-10-16T21:22:54;8.63;;;4.15;;
43014;SDS011;28637;50.554;7.032;2022-10-16T21:27:55;7.40;;;4.30;;
43014;SDS011;28637;50.554;7.032;2022-10-16T21:32:56;5.03;;;4.00;;
43014;SDS011;28637;50.554;7.032;2022-10-16T21:37:56;7.30;;;3.83;;
43014;SDS011;28637;50.554;7.032;2022-10-16T21:42:57;9.80;;;4.10;;
43014;SDS011;28637;50.554;7.032;2022-10-16T21:47:58;6.13;;;3.90;;
43014;SDS011;28637;50.554;7.032;2022-10-16T21:52:59;6.40;;;3.53;;
43014;SDS011;28637;50.554;7.032;2022-10-16T21:57:59;5.20;;;3.43;;
43014;SDS011;28637;50.554;7.032;2022-10-16T22:03:00;5.23;;;3.50;;
43014;SDS011;28637;50.554;7.032;2022-10-16T22:08:01;9.00;;;3.90;;
43014;SDS011;28637;50.554;7.032;2022-10-16T22:13:02;6.63;;;3.50;;
43014;SDS011;28637;50.554;7.032;2022-10-16T22:18:03;6.33;;;3.40;;
43014;SDS011;28637;50.554;7.032;2022-10-16T22:23:04;6.22;;;3.53;;
43014;SDS011;28637;50.554;7.032;2022-10-16T22:28:04;4.97;;;3.20;;
43014;SDS011;28637;50.554;7.032;2022-10-16T22:33:05;6.93;;;3.50;;
43014;SDS011;28637;50.554;7.032;2022-10-16T22:38:06;5.07;;;3.60;;
43014;SDS011;28637;50.554;7.032;2022-10-16T22:43:07;5.20;;;3.45;;
43014;SDS011;28637;50.554;7.032;2022-10-16T22:48:08;9.10;;;3.43;;
43014;SDS011;28637;50.554;7.032;2022-10-16T22:53:09;5.43;;;3.77;;
43014;SDS011;28637;50.554;7.032;2022-10-16T22:58:09;6.33;;;3.87;;
43014;SDS011;28637;50.554;7.032;2022-10-16T23:03:10;7.70;;;3.40;;
43014;SDS011;28637;50.554;7.032;2022-10-16T23:08:11;5.43;;;3.77;;
43014;SDS011;28637;50.554;7.032;2022-10-16T23:13:12;3.77;;;3.20;;
43014;SDS011;28637;50.554;7.032;2022-10-16T23:18:13;6.10;;;3.42;;
43014;SDS011;28637;50.554;7.032;2022-10-16T23:23:13;6.67;;;3.50;;
43014;SDS011;28637;50.554;7.032;2022-10-16T23:28:14;3.50;;;3.20;;
43014;SDS011;28637;50.554;7.032;2022-10-16T23:33:15;5.13;;;3.47;;
43014;SDS011;28637;50.554;7.032;2022-10-16T23:38:16;7.17;;;4.00;;
43014;SDS011;28637;50.554;7.032;2022-10-16T23:43:16;5.50;;;3.30;;
43014;SDS011;28637;50.554;7.032;2022-10-16T23:48:17;4.53;;;3.40;;
43014;SDS011;28637;50.554;7.032;2022-10-16T23:53:18;5.33;;;3.33;;
43014;SDS011;28637;50.554;7.032;2022-10-16T23:58:19;8.50;;;3.77;;
